createdAt,value
2023-04-23T00:01:35.477Z,47.47
2023-04-23T00:04:03.466Z,47.43
2023-04-23T00:06:32.923Z,47.42
2023-04-23T00:09:00.872Z,47.46
2023-04-23T00:11:28.523Z,47.42
2023-04-23T00:13:56.297Z,47.45
2023-04-23T00:16:24.933Z,47.31
2023-04-23T00:18:52.745Z,47.51
2023-04-23T00:21:20.509Z,47.43
2023-04-23T00:23:48.279Z,47.48
2023-04-23T00:26:17.677Z,47.32
2023-04-23T00:28:45.438Z,47.47
2023-04-23T00:31:13.108Z,47.56
2023-04-23T00:33:40.864Z,47.96
2023-04-23T00:36:08.528Z,48.10
2023-04-23T00:38:36.504Z,48.00
2023-04-23T00:41:04.158Z,47.90
2023-04-23T00:43:31.923Z,47.91
2023-04-23T00:45:59.630Z,47.83
2023-04-23T00:48:27.352Z,47.80
2023-04-23T00:50:55.008Z,47.81
2023-04-23T00:53:22.783Z,47.80
2023-04-23T00:55:50.440Z,48.06
2023-04-23T00:58:18.211Z,48.08
2023-04-23T01:00:46.831Z,48.19
2023-04-23T01:03:14.785Z,48.38
2023-04-23T01:05:42.519Z,48.62
2023-04-23T01:08:10.285Z,48.86
2023-04-23T01:10:37.942Z,48.83
2023-04-23T01:13:05.717Z,48.94
2023-04-23T01:15:33.370Z,49.00
2023-04-23T01:18:01.177Z,49.12
2023-04-23T01:20:29.001Z,49.31
2023-04-23T01:22:56.766Z,49.36
2023-04-23T01:25:24.430Z,49.37
2023-04-23T01:27:52.089Z,49.46
2023-04-23T01:30:19.855Z,49.92
2023-04-23T01:32:47.554Z,50.07
2023-04-23T01:35:15.293Z,50.40
2023-04-23T01:37:42.945Z,50.02
2023-04-23T01:40:10.587Z,49.94
2023-04-23T01:42:38.263Z,49.76
2023-04-23T01:45:08.214Z,49.88
2023-04-23T01:47:36.180Z,49.97
2023-04-23T01:50:05.456Z,50.66
2023-04-23T01:52:33.207Z,50.72
2023-04-23T01:55:02.205Z,51.11
2023-04-23T01:57:29.866Z,51.19
2023-04-23T01:59:57.522Z,51.49
2023-04-23T02:02:25.447Z,51.77
2023-04-23T02:04:53.478Z,51.93
2023-04-23T02:07:21.226Z,52.35
2023-04-23T02:09:48.998Z,52.45
2023-04-23T02:12:16.615Z,52.45
2023-04-23T02:14:44.316Z,52.87
2023-04-23T02:17:12.695Z,52.83
2023-04-23T02:19:40.971Z,53.00
2023-04-23T02:22:09.452Z,53.04
2023-04-23T02:24:39.140Z,52.86
2023-04-23T02:27:07.336Z,53.04
2023-04-23T02:29:34.998Z,53.17
2023-04-23T02:32:02.672Z,53.30
2023-04-23T02:34:30.427Z,53.47
2023-04-23T02:36:58.188Z,53.59
2023-04-23T02:39:26.361Z,53.43
2023-04-23T02:41:54.023Z,53.62
2023-04-23T02:44:21.787Z,54.05
2023-04-23T02:46:49.626Z,54.50
2023-04-23T02:49:17.420Z,54.72
2023-04-23T02:51:45.084Z,54.61
2023-04-23T02:54:12.849Z,54.70
2023-04-23T02:56:40.606Z,54.77
2023-04-23T02:59:08.663Z,54.80
2023-04-23T03:01:36.342Z,55.23
2023-04-23T03:04:04.376Z,55.33
2023-04-23T03:06:34.735Z,55.55
2023-04-23T03:09:02.401Z,55.62
2023-04-23T03:11:30.158Z,55.83
2023-04-23T03:13:57.828Z,55.88
2023-04-23T03:16:26.004Z,56.02
2023-04-23T03:18:53.656Z,56.05
2023-04-23T03:21:21.420Z,56.24
2023-04-23T03:23:49.182Z,56.50
2023-04-23T03:26:16.850Z,56.57
2023-04-23T03:28:44.510Z,56.79
2023-04-23T03:31:12.204Z,56.85
2023-04-23T03:33:40.049Z,56.90
2023-04-23T03:36:07.810Z,56.82
2023-04-23T03:38:35.565Z,56.97
2023-04-23T03:41:03.337Z,56.97
2023-04-23T03:43:31.296Z,57.09
2023-04-23T03:45:59.032Z,57.17
2023-04-23T03:48:27.337Z,57.44
2023-04-23T03:50:55.024Z,57.35
2023-04-23T03:53:22.665Z,57.70
2023-04-23T03:55:50.426Z,57.77
2023-04-23T03:58:18.393Z,57.70
2023-04-23T04:00:46.265Z,57.77
2023-04-23T04:03:14.137Z,58.03
2023-04-23T04:05:42.057Z,58.06
2023-04-23T04:08:09.884Z,58.30
2023-04-23T04:10:37.630Z,58.43
2023-04-23T04:13:05.598Z,58.31
2023-04-23T04:15:33.374Z,58.44
2023-04-23T04:18:01.418Z,58.07
2023-04-23T04:20:29.199Z,57.90
2023-04-23T04:22:56.860Z,58.22
2023-04-23T04:25:24.623Z,58.36
2023-04-23T04:27:52.286Z,58.46
2023-04-23T04:30:19.933Z,58.61
2023-04-23T04:32:51.039Z,58.48
2023-04-23T04:35:18.861Z,58.68
2023-04-23T04:37:46.512Z,58.89
2023-04-23T04:40:15.409Z,59.06
2023-04-23T04:42:43.176Z,59.09
2023-04-23T04:45:11.136Z,59.15
2023-04-23T04:47:38.905Z,59.28
2023-04-23T04:50:06.775Z,59.23
2023-04-23T04:52:34.639Z,59.29
2023-04-23T04:55:02.397Z,59.23
2023-04-23T04:57:30.159Z,59.13
2023-04-23T04:59:58.028Z,59.27
2023-04-23T05:02:26.934Z,59.54
2023-04-23T05:04:54.884Z,59.48
2023-04-23T05:07:22.550Z,59.62
2023-04-23T05:09:50.417Z,59.26
2023-04-23T05:12:18.180Z,59.39
2023-04-23T05:14:45.845Z,58.85
2023-04-23T05:17:13.807Z,58.95
2023-04-23T05:19:41.477Z,58.72
2023-04-23T05:22:09.239Z,58.24
2023-04-23T05:24:37.305Z,57.93
2023-04-23T05:27:05.077Z,57.64
2023-04-23T05:29:32.738Z,57.39
2023-04-23T05:32:00.410Z,57.41
2023-04-23T05:34:28.177Z,57.18
2023-04-23T05:36:55.931Z,57.13
2023-04-23T05:39:23.688Z,56.80
2023-04-23T05:41:51.345Z,56.35
2023-04-23T05:44:19.022Z,56.18
2023-04-23T05:46:46.771Z,56.00
2023-04-23T05:49:14.547Z,56.02
2023-04-23T05:51:42.191Z,55.64
2023-04-23T05:54:09.852Z,55.66
2023-04-23T05:56:37.522Z,55.57
2023-04-23T05:59:06.422Z,55.75
2023-04-23T06:01:34.064Z,55.77
2023-04-23T06:04:02.048Z,55.38
2023-04-23T06:06:29.918Z,55.37
2023-04-23T06:08:57.679Z,55.26
2023-04-23T06:11:25.430Z,55.12
2023-04-23T06:13:53.200Z,55.08
2023-04-23T06:16:21.075Z,54.95
2023-04-23T06:18:48.823Z,54.70
2023-04-23T06:21:18.042Z,54.53
2023-04-23T06:23:46.494Z,54.48
2023-04-23T06:26:14.164Z,54.42
2023-04-23T06:28:42.028Z,54.12
2023-04-23T06:31:09.855Z,54.11
2023-04-23T06:33:37.656Z,54.29
2023-04-23T06:36:05.734Z,53.98
2023-04-23T06:38:33.393Z,54.00
2023-04-23T06:41:02.403Z,53.71
2023-04-23T06:43:30.146Z,53.98
2023-04-23T06:45:57.815Z,54.20
2023-04-23T06:48:26.488Z,54.27
2023-04-23T06:50:54.263Z,54.09
2023-04-23T06:53:22.119Z,54.10
2023-04-23T06:55:51.445Z,53.83
2023-04-23T06:58:19.082Z,53.89
2023-04-23T07:00:47.079Z,53.79
2023-04-23T07:03:15.120Z,54.11
2023-04-23T07:05:42.999Z,54.04
2023-04-23T07:08:10.664Z,53.91
2023-04-23T07:10:38.430Z,53.68
2023-04-23T07:13:06.200Z,53.57
2023-04-23T07:15:34.007Z,53.27
2023-04-23T07:18:01.859Z,52.65
2023-04-23T07:20:29.598Z,52.42
2023-04-23T07:22:57.267Z,52.34
2023-04-23T07:25:26.446Z,52.27
2023-04-23T07:27:57.395Z,51.56
2023-04-23T07:30:25.096Z,51.64
2023-04-23T07:32:53.175Z,51.60
2023-04-23T07:35:20.900Z,51.40
2023-04-23T07:37:53.790Z,51.51
2023-04-23T07:40:21.538Z,51.70
2023-04-23T07:42:49.406Z,51.93
2023-04-23T07:45:17.174Z,51.71
2023-04-23T07:47:46.715Z,51.15
2023-04-23T07:50:14.655Z,51.28
2023-04-23T07:52:42.420Z,50.93
2023-04-23T07:55:10.180Z,50.60
2023-04-23T07:57:37.840Z,50.57
2023-04-23T08:00:05.497Z,50.23
2023-04-23T08:02:34.065Z,50.72
2023-04-23T08:05:02.004Z,50.20
2023-04-23T08:07:30.241Z,50.02
2023-04-23T08:10:03.059Z,50.00
2023-04-23T08:12:31.380Z,49.75
2023-04-23T08:14:59.044Z,49.85
2023-04-23T08:17:26.846Z,50.03
2023-04-23T08:19:54.574Z,49.47
2023-04-23T08:22:22.350Z,49.57
2023-04-23T08:24:50.099Z,49.23
2023-04-23T08:27:17.761Z,49.49
2023-04-23T08:29:45.521Z,49.32
2023-04-23T08:32:13.267Z,49.19
2023-04-23T08:34:41.331Z,48.91
2023-04-23T08:37:16.582Z,48.92
2023-04-23T08:39:51.236Z,48.21
2023-04-23T08:42:18.990Z,47.82
2023-04-23T08:44:46.650Z,47.51
2023-04-23T08:47:14.313Z,48.09
2023-04-23T08:49:42.115Z,47.30
2023-04-23T08:52:09.944Z,46.66
2023-04-23T08:54:37.618Z,46.68
2023-04-23T08:57:05.276Z,46.90
2023-04-23T08:59:32.962Z,47.11
2023-04-23T09:02:01.917Z,47.42
2023-04-23T09:04:29.788Z,47.19
2023-04-23T09:06:57.562Z,46.98
2023-04-23T09:09:25.425Z,46.71
2023-04-23T09:11:54.755Z,46.22
2023-04-23T09:14:25.046Z,44.98
2023-04-23T09:16:52.825Z,45.59
2023-04-23T09:19:20.671Z,45.43
2023-04-23T09:21:48.345Z,45.50
2023-04-23T09:24:18.113Z,45.32
2023-04-23T09:26:47.017Z,45.40
2023-04-23T09:29:17.670Z,45.72
2023-04-23T09:31:45.561Z,45.07
2023-04-23T09:34:13.306Z,43.93
2023-04-23T09:36:40.963Z,44.57
2023-04-23T09:39:08.649Z,43.89
2023-04-23T09:41:37.034Z,44.32
2023-04-23T09:44:05.897Z,45.03
2023-04-23T09:46:33.660Z,43.21
2023-04-23T09:49:01.264Z,44.17
2023-04-23T09:51:28.986Z,44.17
2023-04-23T09:53:56.647Z,44.02
2023-04-23T09:56:24.610Z,43.51
2023-04-23T09:58:52.283Z,43.79
2023-04-23T10:01:20.100Z,42.97
2023-04-23T10:03:47.922Z,41.79
2023-04-23T10:06:30.619Z,41.59
2023-04-23T10:09:03.403Z,42.23
2023-04-23T10:11:31.059Z,41.86
2023-04-23T10:13:58.924Z,41.89
2023-04-23T10:16:30.600Z,41.77
2023-04-23T10:19:06.439Z,40.22
2023-04-23T10:21:46.233Z,39.81
2023-04-23T10:24:20.315Z,38.71
2023-04-23T10:26:48.056Z,39.47
2023-04-23T10:29:16.742Z,38.50
2023-04-23T10:31:44.583Z,37.60
2023-04-23T10:34:12.514Z,38.04
2023-04-23T10:36:40.346Z,39.30
2023-04-23T10:39:09.455Z,38.07
2023-04-23T10:41:37.816Z,38.44
2023-04-23T10:44:05.684Z,38.39
2023-04-23T10:46:33.858Z,39.55
2023-04-23T10:49:02.646Z,37.72
2023-04-23T10:52:10.051Z,38.61
2023-04-23T10:54:18.143Z,36.73
2023-04-23T10:56:45.804Z,37.82
2023-04-23T10:59:13.467Z,37.96
2023-04-23T11:01:41.549Z,37.50
2023-04-23T11:04:09.421Z,37.30
2023-04-23T11:06:37.169Z,36.87
2023-04-23T11:09:04.935Z,37.49
2023-04-23T11:11:32.630Z,36.92
2023-04-23T11:14:00.806Z,36.94
2023-04-23T11:16:28.793Z,37.24
2023-04-23T11:18:56.605Z,36.59
2023-04-23T11:21:24.377Z,36.04
2023-04-23T11:23:52.128Z,36.05
2023-04-23T11:26:19.794Z,36.52
2023-04-23T11:28:47.452Z,37.21
2023-04-23T11:31:15.220Z,37.06
2023-04-23T11:33:42.989Z,36.62
2023-04-23T11:36:10.651Z,37.00
2023-04-23T11:38:39.024Z,36.46
2023-04-23T11:41:06.996Z,36.38
2023-04-23T11:43:35.887Z,35.60
2023-04-23T11:46:03.768Z,35.52
2023-04-23T11:48:31.619Z,35.80
2023-04-23T11:50:59.279Z,35.87
2023-04-23T11:53:27.248Z,35.82
2023-04-23T11:55:55.010Z,36.12
2023-04-23T11:58:22.681Z,36.39
2023-04-23T12:00:50.436Z,35.58
2023-04-23T12:03:21.194Z,33.76
2023-04-23T12:05:49.035Z,33.85
2023-04-23T12:08:16.797Z,34.06
2023-04-23T12:10:44.568Z,33.76
2023-04-23T12:13:12.328Z,33.93
2023-04-23T12:15:40.119Z,33.30
2023-04-23T12:18:07.856Z,33.64
2023-04-23T12:20:35.925Z,34.21
2023-04-23T12:23:03.564Z,33.46
2023-04-23T12:25:31.250Z,33.52
2023-04-23T12:28:00.343Z,33.47
2023-04-23T12:30:28.018Z,33.43
2023-04-23T12:32:56.033Z,34.40
2023-04-23T12:35:25.219Z,33.83
2023-04-23T12:37:53.555Z,34.54
2023-04-23T12:40:22.136Z,34.30
2023-04-23T12:42:49.798Z,35.28
2023-04-23T12:45:17.470Z,34.56
2023-04-23T12:47:45.178Z,33.97
2023-04-23T12:50:12.993Z,33.63
2023-04-23T12:52:40.753Z,33.46
2023-04-23T12:55:08.417Z,33.17
2023-04-23T12:57:36.088Z,33.08
2023-04-23T13:00:03.839Z,32.50
2023-04-23T13:02:31.669Z,31.93
2023-04-23T13:05:01.059Z,32.62
2023-04-23T13:07:29.121Z,32.48
2023-04-23T13:09:57.609Z,32.54
2023-04-23T13:12:25.530Z,32.70
2023-04-23T13:14:53.601Z,32.59
2023-04-23T13:17:21.487Z,32.62
2023-04-23T13:19:49.121Z,32.02
2023-04-23T13:22:16.794Z,30.85
2023-04-23T13:24:44.459Z,30.30
2023-04-23T13:27:12.111Z,31.61
2023-04-23T13:29:40.723Z,31.60
2023-04-23T13:32:08.990Z,31.81
2023-04-23T13:34:36.842Z,31.68
2023-04-23T13:37:07.295Z,31.72
2023-04-23T13:39:35.032Z,31.51
2023-04-23T13:42:09.388Z,31.43
2023-04-23T13:44:37.950Z,31.13
2023-04-23T13:47:05.609Z,30.50
2023-04-23T13:49:33.678Z,31.10
2023-04-23T13:52:06.958Z,30.59
2023-04-23T13:54:36.164Z,30.77
2023-04-23T13:57:04.029Z,30.77
2023-04-23T13:59:31.785Z,30.97
2023-04-23T14:01:59.455Z,31.27
2023-04-23T14:04:27.265Z,30.99
2023-04-23T14:06:55.081Z,30.94
2023-04-23T14:09:22.945Z,30.83
2023-04-23T14:11:50.725Z,30.41
2023-04-23T14:14:18.472Z,30.79
2023-04-23T14:16:46.137Z,30.36
2023-04-23T14:19:13.812Z,30.87
2023-04-23T14:21:41.993Z,31.02
2023-04-23T14:24:10.555Z,30.76
2023-04-23T14:26:48.785Z,30.56
2023-04-23T14:29:17.760Z,30.78
2023-04-23T14:31:45.821Z,30.88
2023-04-23T14:34:13.700Z,30.42
2023-04-23T14:36:41.458Z,30.74
2023-04-23T14:39:09.120Z,30.79
2023-04-23T14:41:37.496Z,30.10
2023-04-23T14:44:05.271Z,30.65
2023-04-23T14:46:33.063Z,30.77
2023-04-23T14:49:00.993Z,30.96
2023-04-23T14:51:28.664Z,31.05
2023-04-23T14:53:56.957Z,31.32
2023-04-23T14:56:24.913Z,31.09
2023-04-23T14:58:52.670Z,31.12
2023-04-23T15:01:20.395Z,31.35
2023-04-23T15:03:48.298Z,31.14
2023-04-23T15:06:16.375Z,31.11
2023-04-23T15:08:44.128Z,31.47
2023-04-23T15:11:13.665Z,31.27
2023-04-23T15:13:41.521Z,31.11
2023-04-23T15:16:09.276Z,30.83
2023-04-23T15:18:37.031Z,30.82
2023-04-23T15:21:04.798Z,31.24
2023-04-23T15:23:32.765Z,31.10
2023-04-23T15:26:00.401Z,31.33
2023-04-23T15:28:28.089Z,31.21
2023-04-23T15:30:55.854Z,31.33
2023-04-23T15:33:23.723Z,31.11
2023-04-23T15:35:51.486Z,30.77
2023-04-23T15:38:19.252Z,30.87
2023-04-23T15:40:47.020Z,30.68
2023-04-23T15:43:14.778Z,30.53
2023-04-23T15:45:42.982Z,30.42
2023-04-23T15:48:10.820Z,30.77
2023-04-23T15:50:38.600Z,30.89
2023-04-23T15:53:06.253Z,30.62
2023-04-23T15:55:34.320Z,30.66
2023-04-23T15:58:03.821Z,30.29
2023-04-23T16:00:33.741Z,30.66
2023-04-23T16:03:01.665Z,30.61
2023-04-23T16:05:30.085Z,30.66
2023-04-23T16:07:57.740Z,30.57
2023-04-23T16:10:26.628Z,30.59
2023-04-23T16:12:55.297Z,30.91
2023-04-23T16:15:22.979Z,31.07
2023-04-23T16:17:52.808Z,31.07
2023-04-23T16:20:20.763Z,31.08
2023-04-23T16:22:48.524Z,30.77
2023-04-23T16:25:16.191Z,30.82
2023-04-23T16:27:43.958Z,30.97
2023-04-23T16:30:11.817Z,31.07
2023-04-23T16:32:39.617Z,30.91
2023-04-23T16:35:07.756Z,30.96
2023-04-23T16:37:35.526Z,31.21
2023-04-23T16:40:03.181Z,31.49
2023-04-23T16:42:30.957Z,31.65
2023-04-23T16:44:58.717Z,31.73
2023-04-23T16:47:26.511Z,32.44
2023-04-23T16:49:54.409Z,32.51
2023-04-23T16:52:22.209Z,32.70
2023-04-23T16:54:50.176Z,32.92
2023-04-23T16:57:17.950Z,33.04
2023-04-23T16:59:45.709Z,33.26
2023-04-23T17:02:13.565Z,33.29
2023-04-23T17:04:41.770Z,33.76
2023-04-23T17:07:09.823Z,33.95
2023-04-23T17:09:37.574Z,34.18
2023-04-23T17:12:05.250Z,34.06
2023-04-23T17:14:33.210Z,34.05
2023-04-23T17:17:01.077Z,34.31
2023-04-23T17:19:28.841Z,34.39
2023-04-23T17:21:56.605Z,34.86
2023-04-23T17:24:24.373Z,35.21
2023-04-23T17:26:58.544Z,35.25
2023-04-23T17:29:27.884Z,35.55
2023-04-23T17:31:55.809Z,35.78
2023-04-23T17:34:23.619Z,36.01
2023-04-23T17:36:55.216Z,36.01
2023-04-23T17:39:31.585Z,36.13
2023-04-23T17:41:59.457Z,36.69
2023-04-23T17:44:27.272Z,36.79
2023-04-23T17:46:55.345Z,36.53
2023-04-23T17:49:23.415Z,36.81
2023-04-23T17:51:51.177Z,36.96
2023-04-23T17:54:19.161Z,37.15
2023-04-23T17:56:47.012Z,37.43
2023-04-23T17:59:20.614Z,37.57
2023-04-23T18:01:50.936Z,37.95
2023-04-23T18:04:18.697Z,38.10
2023-04-23T18:06:46.568Z,38.36
2023-04-23T18:09:14.336Z,38.62
2023-04-23T18:11:42.129Z,38.46
2023-04-23T18:14:10.472Z,38.36
2023-04-23T18:16:38.387Z,38.54
2023-04-23T18:19:06.312Z,38.63
2023-04-23T18:21:34.279Z,38.78
2023-04-23T18:24:02.049Z,38.82
2023-04-23T18:26:29.888Z,39.16
2023-04-23T18:28:57.776Z,39.10
2023-04-23T18:31:25.598Z,39.18
2023-04-23T18:33:53.841Z,39.28
2023-04-23T18:36:22.210Z,39.01
2023-04-23T18:38:50.064Z,39.15
2023-04-23T18:41:17.827Z,39.15
2023-04-23T18:43:45.935Z,39.14
2023-04-23T18:46:13.705Z,39.54
2023-04-23T18:48:41.734Z,39.63
2023-04-23T18:51:09.601Z,39.77
2023-04-23T18:53:39.117Z,39.76
2023-04-23T18:56:06.886Z,39.69
2023-04-23T18:58:34.539Z,39.58
2023-04-23T19:01:02.305Z,39.37
2023-04-23T19:03:30.193Z,39.56
2023-04-23T19:05:58.028Z,39.57
2023-04-23T19:08:29.041Z,39.50
2023-04-23T19:10:56.850Z,39.46
2023-04-23T19:13:24.704Z,39.39
2023-04-23T19:15:52.534Z,39.33
2023-04-23T19:18:20.639Z,39.40
2023-04-23T19:20:48.298Z,39.55
2023-04-23T19:23:16.170Z,39.45
2023-04-23T19:25:43.809Z,39.41
2023-04-23T19:28:11.591Z,39.31
2023-04-23T19:30:39.366Z,39.41
2023-04-23T19:33:07.320Z,39.35
2023-04-23T19:35:35.509Z,39.23
2023-04-23T19:38:04.183Z,39.26
2023-04-23T19:40:31.954Z,39.31
2023-04-23T19:42:59.731Z,39.41
2023-04-23T19:45:27.475Z,39.33
2023-04-23T19:47:55.261Z,39.52
2023-04-23T19:50:23.012Z,39.47
2023-04-23T19:52:50.984Z,39.49
2023-04-23T19:55:20.786Z,39.45
2023-04-23T19:57:48.751Z,39.62
2023-04-23T20:00:16.850Z,39.77
2023-04-23T20:02:44.894Z,39.73
2023-04-23T20:05:12.783Z,39.78
2023-04-23T20:07:40.835Z,39.90
2023-04-23T20:10:08.497Z,39.94
2023-04-23T20:12:36.395Z,40.16
2023-04-23T20:15:04.053Z,40.27
2023-04-23T20:17:32.330Z,40.34
2023-04-23T20:20:02.202Z,40.37
2023-04-23T20:22:30.912Z,40.38
2023-04-23T20:24:59.992Z,40.39
2023-04-23T20:27:28.377Z,40.36
2023-04-23T20:29:56.140Z,40.44
2023-04-23T20:32:23.842Z,40.47
2023-04-23T20:34:52.797Z,40.42
2023-04-23T20:37:22.030Z,40.46
2023-04-23T20:39:50.226Z,40.43
2023-04-23T20:42:18.440Z,40.51
2023-04-23T20:44:47.226Z,40.51
2023-04-23T20:47:16.528Z,40.44
2023-04-23T20:49:44.481Z,40.52
2023-04-23T20:52:13.713Z,40.66
2023-04-23T20:54:42.600Z,40.54
2023-04-23T20:57:10.539Z,40.52
2023-04-23T20:59:38.233Z,40.54
2023-04-23T21:02:07.537Z,40.56
2023-04-23T21:04:36.098Z,40.59
2023-04-23T21:07:04.073Z,40.62
2023-04-23T21:09:32.053Z,40.55
2023-04-23T21:11:59.705Z,40.75
2023-04-23T21:14:27.367Z,40.74
2023-04-23T21:16:56.974Z,40.87
2023-04-23T21:19:24.737Z,40.83
2023-04-23T21:21:52.400Z,40.88
2023-04-23T21:24:20.160Z,40.89
2023-04-23T21:26:48.033Z,41.06
2023-04-23T21:29:15.805Z,41.07
2023-04-23T21:31:44.196Z,41.10
2023-04-23T21:34:12.039Z,41.12
2023-04-23T21:36:40.004Z,41.23
2023-04-23T21:39:08.237Z,41.26
2023-04-23T21:41:36.043Z,41.27
2023-04-23T21:44:03.810Z,41.57
2023-04-23T21:46:32.316Z,41.50
2023-04-23T21:49:00.058Z,41.52
2023-04-23T21:51:28.241Z,41.61
2023-04-23T21:53:55.993Z,41.66
2023-04-23T21:56:23.767Z,41.81
2023-04-23T21:58:51.518Z,41.75
2023-04-23T22:01:19.321Z,41.73
2023-04-23T22:03:48.311Z,41.95
2023-04-23T22:06:17.680Z,42.08
2023-04-23T22:08:46.527Z,42.19
2023-04-23T22:11:14.956Z,42.30
2023-04-23T22:13:42.612Z,42.36
2023-04-23T22:16:24.505Z,42.29
2023-04-23T22:18:55.766Z,42.45
2023-04-23T22:21:23.515Z,42.39
2023-04-23T22:23:51.382Z,42.49
2023-04-23T22:26:19.050Z,42.51
2023-04-23T22:28:46.814Z,42.64
2023-04-23T22:31:14.572Z,42.53
2023-04-23T22:33:42.237Z,42.53
2023-04-23T22:36:09.999Z,42.64
2023-04-23T22:38:37.661Z,42.60
2023-04-23T22:41:05.526Z,42.62
2023-04-23T22:43:33.187Z,42.61
2023-04-23T22:46:00.991Z,42.72
2023-04-23T22:48:28.925Z,42.72
2023-04-23T22:50:57.721Z,42.67
2023-04-23T22:53:25.480Z,42.72
2023-04-23T22:55:53.237Z,42.75
2023-04-23T22:58:21.002Z,42.76
2023-04-23T23:00:48.686Z,42.77
2023-04-23T23:03:16.797Z,42.88
2023-04-23T23:05:44.726Z,42.83
2023-04-23T23:08:12.472Z,42.96
2023-04-23T23:10:40.131Z,43.02
2023-04-23T23:13:07.894Z,43.05
2023-04-23T23:15:35.620Z,43.12
2023-04-23T23:18:03.461Z,43.13
2023-04-23T23:20:31.289Z,43.10
2023-04-23T23:22:58.952Z,43.16
2023-04-23T23:25:26.739Z,43.27
2023-04-23T23:27:54.490Z,43.20
2023-04-23T23:30:22.349Z,43.27
2023-04-23T23:32:50.122Z,43.32
2023-04-23T23:35:17.981Z,43.23
2023-04-23T23:37:45.616Z,43.25
2023-04-23T23:40:13.310Z,43.38
2023-04-23T23:42:41.072Z,43.40
2023-04-23T23:45:10.260Z,43.31
2023-04-23T23:47:37.935Z,43.41
2023-04-23T23:50:06.002Z,43.57
2023-04-23T23:52:33.773Z,43.54
2023-04-23T23:55:01.442Z,43.57
2023-04-23T23:57:29.184Z,43.61
2023-04-23T23:59:57.161Z,43.62
